sensor_id;sensor_type;location;lat;lon;timestamp;temperature;humidity
16140;DHT22;8175;49.326;12.690;2023-04-03T00:02:07;1.60;99.90
16140;DHT22;8175;49.326;12.690;2023-04-03T00:04:33;1.60;99.90
16140;DHT22;8175;49.326;12.690;2023-04-03T00:06:59;1.60;99.90
16140;DHT22;8175;49.326;12.690;2023-04-03T00:09:24;1.60;99.90
16140;DHT22;8175;49.326;12.690;2023-04-03T00:11:50;1.70;99.90
16140;DHT22;8175;49.326;12.690;2023-04-03T00:14:16;1.70;99.90
16140;DHT22;8175;49.326;12.690;2023-04-03T00:16:41;1.70;99.90
16140;DHT22;8175;49.326;12.690;2023-04-03T00:19:07;1.70;99.90
16140;DHT22;8175;49.326;12.690;2023-04-03T00:21:33;1.70;99.90
16140;DHT22;8175;49.326;12.690;2023-04-03T00:23:59;1.70;99.90
16140;DHT22;8175;49.326;12.690;2023-04-03T00:26:25;1.70;99.90
16140;DHT22;8175;49.326;12.690;2023-04-03T00:28:50;1.60;99.90
16140;DHT22;8175;49.326;12.690;2023-04-03T00:31:16;1.60;99.90
16140;DHT22;8175;49.326;12.690;2023-04-03T00:33:42;1.60;99.90
16140;DHT22;8175;49.326;12.690;2023-04-03T00:36:11;1.60;99.90
16140;DHT22;8175;49.326;12.690;2023-04-03T00:38:37;1.60;99.90
16140;DHT22;8175;49.326;12.690;2023-04-03T00:41:03;1.60;99.90
16140;DHT22;8175;49.326;12.690;2023-04-03T00:43:30;1.60;99.90
16140;DHT22;8175;49.326;12.690;2023-04-03T00:45:57;1.60;99.90
16140;DHT22;8175;49.326;12.690;2023-04-03T00:48:31;1.60;99.90
16140;DHT22;8175;49.326;12.690;2023-04-03T00:50:58;1.60;99.90
16140;DHT22;8175;49.326;12.690;2023-04-03T00:53:31;1.50;99.90
16140;DHT22;8175;49.326;12.690;2023-04-03T00:55:58;1.60;99.90
16140;DHT22;8175;49.326;12.690;2023-04-03T00:58:39;1.60;99.90
16140;DHT22;8175;49.326;12.690;2023-04-03T05:35:48;0.90;99.90
16140;DHT22;8175;49.326;12.690;2023-04-03T05:38:14;1.00;99.90
16140;DHT22;8175;49.326;12.690;2023-04-03T05:40:40;1.00;99.90
16140;DHT22;8175;49.326;12.690;2023-04-03T05:43:06;1.00;99.90
16140;DHT22;8175;49.326;12.690;2023-04-03T05:45:31;1.10;99.90
16140;DHT22;8175;49.326;12.690;2023-04-03T05:47:57;1.00;99.90
16140;DHT22;8175;49.326;12.690;2023-04-03T05:59:13;0.90;99.90
16140;DHT22;8175;49.326;12.690;2023-04-03T06:01:39;0.90;99.90
16140;DHT22;8175;49.326;12.690;2023-04-03T06:04:05;1.00;99.90
16140;DHT22;8175;49.326;12.690;2023-04-03T06:06:57;1.10;99.90
16140;DHT22;8175;49.326;12.690;2023-04-03T06:09:25;1.00;99.90
16140;DHT22;8175;49.326;12.690;2023-04-03T06:11:52;1.00;99.90
16140;DHT22;8175;49.326;12.690;2023-04-03T06:14:18;1.10;99.90
16140;DHT22;8175;49.326;12.690;2023-04-03T06:16:44;1.00;99.90
16140;DHT22;8175;49.326;12.690;2023-04-03T06:19:11;1.00;99.90
16140;DHT22;8175;49.326;12.690;2023-04-03T06:21:37;1.10;99.90
16140;DHT22;8175;49.326;12.690;2023-04-03T06:24:04;1.20;99.90
16140;DHT22;8175;49.326;12.690;2023-04-03T06:26:30;1.20;99.90
16140;DHT22;8175;49.326;12.690;2023-04-03T06:28:56;1.30;99.90
16140;DHT22;8175;49.326;12.690;2023-04-03T06:31:22;1.30;99.90
16140;DHT22;8175;49.326;12.690;2023-04-03T06:33:47;1.30;99.90
16140;DHT22;8175;49.326;12.690;2023-04-03T06:36:13;1.30;99.90
16140;DHT22;8175;49.326;12.690;2023-04-03T06:38:39;1.30;99.90
16140;DHT22;8175;49.326;12.690;2023-04-03T06:41:04;1.30;99.90
16140;DHT22;8175;49.326;12.690;2023-04-03T06:43:30;1.20;99.90
16140;DHT22;8175;49.326;12.690;2023-04-03T06:45:59;1.30;99.90
16140;DHT22;8175;49.326;12.690;2023-04-03T06:48:24;1.30;99.90
16140;DHT22;8175;49.326;12.690;2023-04-03T06:50:50;1.30;99.90
16140;DHT22;8175;49.326;12.690;2023-04-03T06:53:16;1.20;99.90
16140;DHT22;8175;49.326;12.690;2023-04-03T06:55:41;1.30;99.90
16140;DHT22;8175;49.326;12.690;2023-04-03T06:58:07;1.40;99.90
16140;DHT22;8175;49.326;12.690;2023-04-03T07:00:33;1.60;99.90
16140;DHT22;8175;49.326;12.690;2023-04-03T07:02:59;1.70;99.90
16140;DHT22;8175;49.326;12.690;2023-04-03T07:05:25;1.70;99.90
16140;DHT22;8175;49.326;12.690;2023-04-03T07:07:52;1.50;99.90
16140;DHT22;8175;49.326;12.690;2023-04-03T07:10:18;1.60;99.90
16140;DHT22;8175;49.326;12.690;2023-04-03T07:12:44;1.60;99.90
16140;DHT22;8175;49.326;12.690;2023-04-03T07:15:10;1.50;99.90
16140;DHT22;8175;49.326;12.690;2023-04-03T07:17:38;1.60;99.90
16140;DHT22;8175;49.326;12.690;2023-04-03T07:20:04;2.10;99.90
16140;DHT22;8175;49.326;12.690;2023-04-03T07:22:30;2.70;99.90
16140;DHT22;8175;49.326;12.690;2023-04-03T07:24:56;3.00;99.90
16140;DHT22;8175;49.326;12.690;2023-04-03T07:27:22;3.00;99.90
16140;DHT22;8175;49.326;12.690;2023-04-03T07:29:47;3.40;99.90
16140;DHT22;8175;49.326;12.690;2023-04-03T07:32:16;4.10;99.90
16140;DHT22;8175;49.326;12.690;2023-04-03T07:34:41;3.70;99.90
16140;DHT22;8175;49.326;12.690;2023-04-03T07:37:07;3.30;99.90
16140;DHT22;8175;49.326;12.690;2023-04-03T07:39:34;3.90;99.90
16140;DHT22;8175;49.326;12.690;2023-04-03T07:42:00;4.70;99.90
16140;DHT22;8175;49.326;12.690;2023-04-03T07:44:26;5.80;99.90
16140;DHT22;8175;49.326;12.690;2023-04-03T07:46:51;5.40;99.90
16140;DHT22;8175;49.326;12.690;2023-04-03T07:49:18;5.80;99.90
16140;DHT22;8175;49.326;12.690;2023-04-03T07:51:44;5.60;99.90
16140;DHT22;8175;49.326;12.690;2023-04-03T07:54:10;6.90;99.90
16140;DHT22;8175;49.326;12.690;2023-04-03T07:56:36;6.70;99.90
16140;DHT22;8175;49.326;12.690;2023-04-03T07:59:02;6.20;99.90
16140;DHT22;8175;49.326;12.690;2023-04-03T08:01:28;6.70;99.90
16140;DHT22;8175;49.326;12.690;2023-04-03T08:03:54;6.30;99.90
16140;DHT22;8175;49.326;12.690;2023-04-03T08:06:19;6.00;99.90
16140;DHT22;8175;49.326;12.690;2023-04-03T08:08:45;5.00;99.90
16140;DHT22;8175;49.326;12.690;2023-04-03T08:11:11;5.80;99.90
16140;DHT22;8175;49.326;12.690;2023-04-03T08:13:37;6.10;99.90
16140;DHT22;8175;49.326;12.690;2023-04-03T08:16:16;6.00;99.90
16140;DHT22;8175;49.326;12.690;2023-04-03T08:18:43;6.20;99.90
16140;DHT22;8175;49.326;12.690;2023-04-03T08:21:10;6.00;99.90
16140;DHT22;8175;49.326;12.690;2023-04-03T08:23:37;5.40;99.90
16140;DHT22;8175;49.326;12.690;2023-04-03T08:26:16;3.50;99.90
16140;DHT22;8175;49.326;12.690;2023-04-03T08:28:42;3.70;99.90
16140;DHT22;8175;49.326;12.690;2023-04-03T08:31:17;4.70;99.90
16140;DHT22;8175;49.326;12.690;2023-04-03T08:33:44;5.70;99.90
16140;DHT22;8175;49.326;12.690;2023-04-03T08:36:22;5.40;99.90
16140;DHT22;8175;49.326;12.690;2023-04-03T08:38:49;6.20;99.90
16140;DHT22;8175;49.326;12.690;2023-04-03T08:41:26;6.30;96.70
16140;DHT22;8175;49.326;12.690;2023-04-03T08:47:23;5.80;97.90
16140;DHT22;8175;49.326;12.690;2023-04-03T08:49:51;4.90;95.40
16140;DHT22;8175;49.326;12.690;2023-04-03T08:52:36;3.60;98.20
16140;DHT22;8175;49.326;12.690;2023-04-03T08:55:25;3.50;99.90
16140;DHT22;8175;49.326;12.690;2023-04-03T08:58:22;4.80;99.90
16140;DHT22;8175;49.326;12.690;2023-04-03T09:01:01;5.90;97.80
16140;DHT22;8175;49.326;12.690;2023-04-03T09:03:31;7.00;92.40
16140;DHT22;8175;49.326;12.690;2023-04-03T09:06:07;7.70;94.10
16140;DHT22;8175;49.326;12.690;2023-04-03T09:14:01;6.50;95.60
16140;DHT22;8175;49.326;12.690;2023-04-03T09:19:22;6.40;96.30
16140;DHT22;8175;49.326;12.690;2023-04-03T09:21:51;6.40;93.80
16140;DHT22;8175;49.326;12.690;2023-04-03T09:24:17;5.60;93.90
16140;DHT22;8175;49.326;12.690;2023-04-03T09:29:19;5.30;95.80
16140;DHT22;8175;49.326;12.690;2023-04-03T09:31:49;6.10;95.80
16140;DHT22;8175;49.326;12.690;2023-04-03T09:34:34;5.50;92.40
16140;DHT22;8175;49.326;12.690;2023-04-03T09:37:05;4.30;96.00
16140;DHT22;8175;49.326;12.690;2023-04-03T09:39:52;4.50;95.60
16140;DHT22;8175;49.326;12.690;2023-04-03T09:42:25;6.40;99.50
16140;DHT22;8175;49.326;12.690;2023-04-03T09:44:56;7.10;93.70
16140;DHT22;8175;49.326;12.690;2023-04-03T09:47:29;7.20;95.00
16140;DHT22;8175;49.326;12.690;2023-04-03T09:50:20;9.80;89.10
16140;DHT22;8175;49.326;12.690;2023-04-03T09:52:48;8.40;90.20
16140;DHT22;8175;49.326;12.690;2023-04-03T09:55:19;7.40;88.90
16140;DHT22;8175;49.326;12.690;2023-04-03T09:57:47;8.20;84.60
16140;DHT22;8175;49.326;12.690;2023-04-03T10:00:24;6.60;81.20
16140;DHT22;8175;49.326;12.690;2023-04-03T10:02:54;6.50;91.50
16140;DHT22;8175;49.326;12.690;2023-04-03T10:05:33;8.00;90.90
16140;DHT22;8175;49.326;12.690;2023-04-03T10:10:45;6.60;85.70
16140;DHT22;8175;49.326;12.690;2023-04-03T10:13:17;5.00;91.10
16140;DHT22;8175;49.326;12.690;2023-04-03T10:21:10;4.60;93.40
16140;DHT22;8175;49.326;12.690;2023-04-03T10:26:44;3.90;94.60
16140;DHT22;8175;49.326;12.690;2023-04-03T10:42:37;8.40;93.20
16140;DHT22;8175;49.326;12.690;2023-04-03T10:45:24;7.60;91.00
16140;DHT22;8175;49.326;12.690;2023-04-03T10:48:02;6.00;93.10
16140;DHT22;8175;49.326;12.690;2023-04-03T10:53:21;5.00;92.00
16140;DHT22;8175;49.326;12.690;2023-04-03T10:59:25;6.20;94.10
16140;DHT22;8175;49.326;12.690;2023-04-03T11:01:46;7.60;92.80
16140;DHT22;8175;49.326;12.690;2023-04-03T11:04:14;6.90;84.20
16140;DHT22;8175;49.326;12.690;2023-04-03T11:06:52;7.80;93.80
16140;DHT22;8175;49.326;12.690;2023-04-03T11:09:24;10.10;86.30
16140;DHT22;8175;49.326;12.690;2023-04-03T11:11:55;9.40;80.80
16140;DHT22;8175;49.326;12.690;2023-04-03T11:14:36;9.60;79.30
16140;DHT22;8175;49.326;12.690;2023-04-03T11:17:26;11.30;78.80
16140;DHT22;8175;49.326;12.690;2023-04-03T11:22:48;13.90;66.90
16140;DHT22;8175;49.326;12.690;2023-04-03T11:25:24;14.10;65.10
16140;DHT22;8175;49.326;12.690;2023-04-03T11:28:04;11.00;68.00
16140;DHT22;8175;49.326;12.690;2023-04-03T11:36:26;7.50;72.90
16140;DHT22;8175;49.326;12.690;2023-04-03T11:38:57;7.80;77.40
16140;DHT22;8175;49.326;12.690;2023-04-03T11:41:33;7.20;74.80
16140;DHT22;8175;49.326;12.690;2023-04-03T11:44:03;7.10;74.80
16140;DHT22;8175;49.326;12.690;2023-04-03T11:47:02;6.70;78.80
16140;DHT22;8175;49.326;12.690;2023-04-03T12:14:01;9.40;63.40
16140;DHT22;8175;49.326;12.690;2023-04-03T12:16:44;8.10;67.70
16140;DHT22;8175;49.326;12.690;2023-04-03T12:46:35;6.20;88.80
16140;DHT22;8175;49.326;12.690;2023-04-03T12:48:57;8.10;80.90
16140;DHT22;8175;49.326;12.690;2023-04-03T12:57:21;7.30;74.20
16140;DHT22;8175;49.326;12.690;2023-04-03T12:59:49;7.00;80.50
16140;DHT22;8175;49.326;12.690;2023-04-03T13:02:32;6.60;80.00
16140;DHT22;8175;49.326;12.690;2023-04-03T13:05:06;5.10;77.50
16140;DHT22;8175;49.326;12.690;2023-04-03T13:07:35;4.10;77.00
16140;DHT22;8175;49.326;12.690;2023-04-03T13:12:33;6.10;79.20
16140;DHT22;8175;49.326;12.690;2023-04-03T13:15:10;8.00;74.00
16140;DHT22;8175;49.326;12.690;2023-04-03T13:17:40;8.40;74.00
16140;DHT22;8175;49.326;12.690;2023-04-03T13:20:16;8.20;72.60
16140;DHT22;8175;49.326;12.690;2023-04-03T13:22:49;8.40;72.40
16140;DHT22;8175;49.326;12.690;2023-04-03T13:25:17;8.20;68.90
16140;DHT22;8175;49.326;12.690;2023-04-03T13:27:43;8.90;68.10
16140;DHT22;8175;49.326;12.690;2023-04-03T13:32:49;9.40;69.00
16140;DHT22;8175;49.326;12.690;2023-04-03T13:35:26;8.30;73.90
16140;DHT22;8175;49.326;12.690;2023-04-03T13:40:52;6.20;74.50
16140;DHT22;8175;49.326;12.690;2023-04-03T13:43:25;7.40;73.50
16140;DHT22;8175;49.326;12.690;2023-04-03T13:46:23;9.30;78.80
16140;DHT22;8175;49.326;12.690;2023-04-03T13:48:52;9.30;69.10
16140;DHT22;8175;49.326;12.690;2023-04-03T13:51:22;6.90;71.50
16140;DHT22;8175;49.326;12.690;2023-04-03T13:53:56;5.90;77.30
16140;DHT22;8175;49.326;12.690;2023-04-03T13:59:30;6.90;78.30
16140;DHT22;8175;49.326;12.690;2023-04-03T14:04:30;6.50;74.10
16140;DHT22;8175;49.326;12.690;2023-04-03T14:06:57;5.60;80.50
16140;DHT22;8175;49.326;12.690;2023-04-03T14:09:25;5.40;82.10
16140;DHT22;8175;49.326;12.690;2023-04-03T14:11:54;4.80;84.80
16140;DHT22;8175;49.326;12.690;2023-04-03T14:14:24;5.30;83.60
16140;DHT22;8175;49.326;12.690;2023-04-03T14:16:58;6.00;85.20
16140;DHT22;8175;49.326;12.690;2023-04-03T14:19:31;6.70;81.90
16140;DHT22;8175;49.326;12.690;2023-04-03T14:21:58;7.00;78.50
16140;DHT22;8175;49.326;12.690;2023-04-03T14:24:24;5.20;81.60
16140;DHT22;8175;49.326;12.690;2023-04-03T14:26:52;4.10;84.70
16140;DHT22;8175;49.326;12.690;2023-04-03T14:29:19;3.60;86.50
16140;DHT22;8175;49.326;12.690;2023-04-03T14:31:46;3.60;85.40
16140;DHT22;8175;49.326;12.690;2023-04-03T14:34:14;3.90;86.80
16140;DHT22;8175;49.326;12.690;2023-04-03T14:36:42;4.60;84.40
16140;DHT22;8175;49.326;12.690;2023-04-03T14:39:16;5.00;83.60
16140;DHT22;8175;49.326;12.690;2023-04-03T14:41:43;5.60;87.90
16140;DHT22;8175;49.326;12.690;2023-04-03T14:44:08;5.30;83.60
16140;DHT22;8175;49.326;12.690;2023-04-03T14:46:37;5.80;81.10
16140;DHT22;8175;49.326;12.690;2023-04-03T14:49:10;5.00;79.80
16140;DHT22;8175;49.326;12.690;2023-04-03T14:51:37;4.30;81.50
16140;DHT22;8175;49.326;12.690;2023-04-03T14:54:04;3.90;82.60
16140;DHT22;8175;49.326;12.690;2023-04-03T14:56:30;3.70;83.40
16140;DHT22;8175;49.326;12.690;2023-04-03T14:58:59;3.80;87.40
16140;DHT22;8175;49.326;12.690;2023-04-03T15:01:26;4.20;87.10
16140;DHT22;8175;49.326;12.690;2023-04-03T15:03:52;4.10;87.50
16140;DHT22;8175;49.326;12.690;2023-04-03T15:06:18;3.60;85.10
16140;DHT22;8175;49.326;12.690;2023-04-03T15:08:46;3.50;87.30
16140;DHT22;8175;49.326;12.690;2023-04-03T15:11:12;3.80;87.40
16140;DHT22;8175;49.326;12.690;2023-04-03T15:13:39;3.50;86.20
16140;DHT22;8175;49.326;12.690;2023-04-03T15:16:08;3.40;86.20
16140;DHT22;8175;49.326;12.690;2023-04-03T15:18:38;3.30;85.10
16140;DHT22;8175;49.326;12.690;2023-04-03T15:21:04;3.10;89.30
16140;DHT22;8175;49.326;12.690;2023-04-03T15:23:30;3.10;91.30
16140;DHT22;8175;49.326;12.690;2023-04-03T15:25:56;3.10;90.10
16140;DHT22;8175;49.326;12.690;2023-04-03T15:28:38;2.90;90.50
16140;DHT22;8175;49.326;12.690;2023-04-03T15:31:05;3.00;88.30
16140;DHT22;8175;49.326;12.690;2023-04-03T15:33:32;3.10;91.10
16140;DHT22;8175;49.326;12.690;2023-04-03T15:35:58;3.00;89.40
16140;DHT22;8175;49.326;12.690;2023-04-03T15:38:24;2.70;88.50
16140;DHT22;8175;49.326;12.690;2023-04-03T15:40:50;2.90;89.50
16140;DHT22;8175;49.326;12.690;2023-04-03T15:43:16;3.00;90.30
16140;DHT22;8175;49.326;12.690;2023-04-03T15:45:42;2.80;90.50
16140;DHT22;8175;49.326;12.690;2023-04-03T15:48:09;2.60;91.70
16140;DHT22;8175;49.326;12.690;2023-04-03T15:50:36;2.20;92.30
16140;DHT22;8175;49.326;12.690;2023-04-03T15:53:02;2.00;92.40
16140;DHT22;8175;49.326;12.690;2023-04-03T15:55:32;2.00;93.10
16140;DHT22;8175;49.326;12.690;2023-04-03T15:57:59;1.90;91.50
16140;DHT22;8175;49.326;12.690;2023-04-03T16:00:25;2.00;91.20
16140;DHT22;8175;49.326;12.690;2023-04-03T16:02:55;1.90;90.30
16140;DHT22;8175;49.326;12.690;2023-04-03T16:05:22;1.90;90.40
16140;DHT22;8175;49.326;12.690;2023-04-03T16:07:48;2.20;90.00
16140;DHT22;8175;49.326;12.690;2023-04-03T16:10:15;2.40;89.50
16140;DHT22;8175;49.326;12.690;2023-04-03T16:12:41;2.50;90.40
16140;DHT22;8175;49.326;12.690;2023-04-03T16:15:07;2.60;85.40
16140;DHT22;8175;49.326;12.690;2023-04-03T16:17:34;2.70;84.10
16140;DHT22;8175;49.326;12.690;2023-04-03T16:20:01;2.70;87.60
16140;DHT22;8175;49.326;12.690;2023-04-03T16:22:28;2.60;84.70
16140;DHT22;8175;49.326;12.690;2023-04-03T16:24:55;2.40;89.10
16140;DHT22;8175;49.326;12.690;2023-04-03T16:27:21;2.40;90.00
16140;DHT22;8175;49.326;12.690;2023-04-03T16:29:47;2.20;88.80
16140;DHT22;8175;49.326;12.690;2023-04-03T16:32:13;2.20;90.20
16140;DHT22;8175;49.326;12.690;2023-04-03T16:34:39;2.10;90.60
16140;DHT22;8175;49.326;12.690;2023-04-03T16:37:06;2.00;91.30
16140;DHT22;8175;49.326;12.690;2023-04-03T16:39:34;2.00;90.30
16140;DHT22;8175;49.326;12.690;2023-04-03T16:42:00;1.90;90.50
16140;DHT22;8175;49.326;12.690;2023-04-03T16:44:25;1.90;91.00
16140;DHT22;8175;49.326;12.690;2023-04-03T16:46:51;1.80;91.80
16140;DHT22;8175;49.326;12.690;2023-04-03T16:49:17;1.80;90.90
16140;DHT22;8175;49.326;12.690;2023-04-03T16:51:42;1.90;91.80
16140;DHT22;8175;49.326;12.690;2023-04-03T16:54:08;1.90;90.90
16140;DHT22;8175;49.326;12.690;2023-04-03T16:56:36;1.90;92.00
16140;DHT22;8175;49.326;12.690;2023-04-03T16:59:01;1.80;90.30
16140;DHT22;8175;49.326;12.690;2023-04-03T17:01:27;1.60;90.50
16140;DHT22;8175;49.326;12.690;2023-04-03T17:03:53;1.60;91.90
16140;DHT22;8175;49.326;12.690;2023-04-03T17:06:21;1.60;91.70
16140;DHT22;8175;49.326;12.690;2023-04-03T17:08:49;1.50;91.20
16140;DHT22;8175;49.326;12.690;2023-04-03T17:11:15;1.50;91.90
16140;DHT22;8175;49.326;12.690;2023-04-03T17:13:41;1.60;91.90
16140;DHT22;8175;49.326;12.690;2023-04-03T17:16:13;1.60;91.20
16140;DHT22;8175;49.326;12.690;2023-04-03T17:18:40;1.50;91.30
16140;DHT22;8175;49.326;12.690;2023-04-03T17:21:06;1.40;93.10
16140;DHT22;8175;49.326;12.690;2023-04-03T17:23:33;1.30;92.50
16140;DHT22;8175;49.326;12.690;2023-04-03T17:26:01;1.30;94.00
16140;DHT22;8175;49.326;12.690;2023-04-03T17:28:27;1.20;93.60
16140;DHT22;8175;49.326;12.690;2023-04-03T17:30:58;1.10;95.80
16140;DHT22;8175;49.326;12.690;2023-04-03T17:33:24;1.00;95.00
16140;DHT22;8175;49.326;12.690;2023-04-03T17:35:51;1.00;96.10
16140;DHT22;8175;49.326;12.690;2023-04-03T17:38:17;0.90;95.60
16140;DHT22;8175;49.326;12.690;2023-04-03T17:40:43;0.90;95.90
16140;DHT22;8175;49.326;12.690;2023-04-03T17:43:10;0.90;96.70
16140;DHT22;8175;49.326;12.690;2023-04-03T17:45:36;0.80;96.10
16140;DHT22;8175;49.326;12.690;2023-04-03T17:48:02;0.70;96.90
16140;DHT22;8175;49.326;12.690;2023-04-03T17:50:28;0.60;97.80
16140;DHT22;8175;49.326;12.690;2023-04-03T17:52:54;0.60;97.90
16140;DHT22;8175;49.326;12.690;2023-04-03T17:55:20;0.60;98.30
16140;DHT22;8175;49.326;12.690;2023-04-03T17:57:45;0.60;98.80
16140;DHT22;8175;49.326;12.690;2023-04-03T18:00:11;0.60;99.00
16140;DHT22;8175;49.326;12.690;2023-04-03T18:02:37;0.70;99.90
16140;DHT22;8175;49.326;12.690;2023-04-03T18:07:38;0.70;99.90
16140;DHT22;8175;49.326;12.690;2023-04-03T18:10:06;0.70;99.90
16140;DHT22;8175;49.326;12.690;2023-04-03T18:12:34;0.70;99.90
16140;DHT22;8175;49.326;12.690;2023-04-03T18:15:00;0.80;99.90
16140;DHT22;8175;49.326;12.690;2023-04-03T18:17:27;0.70;99.90
16140;DHT22;8175;49.326;12.690;2023-04-03T18:19:53;0.70;99.90
16140;DHT22;8175;49.326;12.690;2023-04-03T18:22:20;0.70;99.90
16140;DHT22;8175;49.326;12.690;2023-04-03T18:24:48;0.60;99.90
16140;DHT22;8175;49.326;12.690;2023-04-03T18:27:16;0.50;99.90
16140;DHT22;8175;49.326;12.690;2023-04-03T18:29:45;0.40;99.90
16140;DHT22;8175;49.326;12.690;2023-04-03T18:32:13;0.30;99.90
16140;DHT22;8175;49.326;12.690;2023-04-03T18:34:40;0.10;99.90
16140;DHT22;8175;49.326;12.690;2023-04-03T18:37:06;0.00;99.90
16140;DHT22;8175;49.326;12.690;2023-04-03T18:39:32;-0.10;99.90
16140;DHT22;8175;49.326;12.690;2023-04-03T18:42:02;-0.20;99.90
16140;DHT22;8175;49.326;12.690;2023-04-03T18:44:30;-0.20;99.90
16140;DHT22;8175;49.326;12.690;2023-04-03T18:46:56;-0.20;99.90
16140;DHT22;8175;49.326;12.690;2023-04-03T18:49:26;-0.10;99.90
16140;DHT22;8175;49.326;12.690;2023-04-03T18:51:53;0.00;99.90
16140;DHT22;8175;49.326;12.690;2023-04-03T18:54:19;0.10;99.90
16140;DHT22;8175;49.326;12.690;2023-04-03T18:56:45;0.30;99.90
16140;DHT22;8175;49.326;12.690;2023-04-03T18:59:12;0.30;99.90
16140;DHT22;8175;49.326;12.690;2023-04-03T19:01:38;0.30;99.90
16140;DHT22;8175;49.326;12.690;2023-04-03T19:04:04;0.20;99.90
16140;DHT22;8175;49.326;12.690;2023-04-03T19:06:32;0.20;99.90
16140;DHT22;8175;49.326;12.690;2023-04-03T19:08:59;0.30;99.90
16140;DHT22;8175;49.326;12.690;2023-04-03T19:11:25;0.40;99.90
16140;DHT22;8175;49.326;12.690;2023-04-03T19:13:51;0.40;99.90
16140;DHT22;8175;49.326;12.690;2023-04-03T19:16:17;0.40;99.90
16140;DHT22;8175;49.326;12.690;2023-04-03T19:18:43;0.40;99.90
16140;DHT22;8175;49.326;12.690;2023-04-03T19:21:08;0.40;99.90
16140;DHT22;8175;49.326;12.690;2023-04-03T19:23:34;0.40;99.90
16140;DHT22;8175;49.326;12.690;2023-04-03T19:26:03;0.40;99.90
16140;DHT22;8175;49.326;12.690;2023-04-03T19:28:29;0.50;99.90
16140;DHT22;8175;49.326;12.690;2023-04-03T19:30:55;0.50;99.90
16140;DHT22;8175;49.326;12.690;2023-04-03T19:33:22;0.50;99.90
16140;DHT22;8175;49.326;12.690;2023-04-03T19:35:48;0.50;99.90
16140;DHT22;8175;49.326;12.690;2023-04-03T19:38:14;0.50;99.90
16140;DHT22;8175;49.326;12.690;2023-04-03T19:40:40;0.50;99.90
16140;DHT22;8175;49.326;12.690;2023-04-03T19:43:10;0.50;99.90
16140;DHT22;8175;49.326;12.690;2023-04-03T19:45:36;0.50;99.90
16140;DHT22;8175;49.326;12.690;2023-04-03T19:48:03;0.60;99.90
16140;DHT22;8175;49.326;12.690;2023-04-03T19:50:30;0.60;99.90
16140;DHT22;8175;49.326;12.690;2023-04-03T19:52:58;0.50;99.90
16140;DHT22;8175;49.326;12.690;2023-04-03T19:55:23;0.60;99.90
16140;DHT22;8175;49.326;12.690;2023-04-03T19:57:49;0.50;99.90
16140;DHT22;8175;49.326;12.690;2023-04-03T20:00:15;0.50;99.90
16140;DHT22;8175;49.326;12.690;2023-04-03T20:02:40;0.50;99.90
16140;DHT22;8175;49.326;12.690;2023-04-03T20:05:06;0.50;99.90
16140;DHT22;8175;49.326;12.690;2023-04-03T20:07:32;0.50;99.90
16140;DHT22;8175;49.326;12.690;2023-04-03T20:09:58;0.50;99.90
16140;DHT22;8175;49.326;12.690;2023-04-03T20:12:23;0.50;99.90
16140;DHT22;8175;49.326;12.690;2023-04-03T20:14:49;0.40;99.90
16140;DHT22;8175;49.326;12.690;2023-04-03T20:17:16;0.40;99.90
16140;DHT22;8175;49.326;12.690;2023-04-03T20:19:41;0.30;99.90
16140;DHT22;8175;49.326;12.690;2023-04-03T20:22:07;0.30;99.90
16140;DHT22;8175;49.326;12.690;2023-04-03T20:24:33;0.20;99.90
16140;DHT22;8175;49.326;12.690;2023-04-03T20:26:59;0.10;99.90
16140;DHT22;8175;49.326;12.690;2023-04-03T20:29:26;0.00;99.90
16140;DHT22;8175;49.326;12.690;2023-04-03T20:31:53;-0.10;99.90
16140;DHT22;8175;49.326;12.690;2023-04-03T20:34:19;-0.20;99.90
16140;DHT22;8175;49.326;12.690;2023-04-03T20:36:46;-0.10;99.90
16140;DHT22;8175;49.326;12.690;2023-04-03T20:39:12;-0.20;99.90
16140;DHT22;8175;49.326;12.690;2023-04-03T20:41:38;-0.30;99.90
16140;DHT22;8175;49.326;12.690;2023-04-03T20:44:04;-0.40;99.90
16140;DHT22;8175;49.326;12.690;2023-04-03T20:46:30;-0.30;99.90
16140;DHT22;8175;49.326;12.690;2023-04-03T20:48:56;-0.30;99.90
16140;DHT22;8175;49.326;12.690;2023-04-03T20:51:24;-0.30;99.90
16140;DHT22;8175;49.326;12.690;2023-04-03T20:53:49;-0.40;99.90
16140;DHT22;8175;49.326;12.690;2023-04-03T20:56:16;-0.30;99.90
16140;DHT22;8175;49.326;12.690;2023-04-03T20:58:42;-0.30;99.90
16140;DHT22;8175;49.326;12.690;2023-04-03T21:01:21;-0.30;99.90
16140;DHT22;8175;49.326;12.690;2023-04-03T21:03:49;-0.30;99.90
16140;DHT22;8175;49.326;12.690;2023-04-03T21:20:54;-0.20;99.90
16140;DHT22;8175;49.326;12.690;2023-04-03T21:23:20;-0.30;99.90
16140;DHT22;8175;49.326;12.690;2023-04-03T21:25:48;-0.20;99.90
16140;DHT22;8175;49.326;12.690;2023-04-03T21:28:14;-0.20;99.90
16140;DHT22;8175;49.326;12.690;2023-04-03T21:30:40;-0.20;99.90
16140;DHT22;8175;49.326;12.690;2023-04-03T21:33:06;-0.30;99.90
16140;DHT22;8175;49.326;12.690;2023-04-03T21:35:31;-0.30;99.90
16140;DHT22;8175;49.326;12.690;2023-04-03T21:37:57;-0.20;99.90
16140;DHT22;8175;49.326;12.690;2023-04-03T21:40:23;-0.30;99.90
16140;DHT22;8175;49.326;12.690;2023-04-03T21:42:53;-0.20;99.90
16140;DHT22;8175;49.326;12.690;2023-04-03T21:45:19;-0.30;99.90
16140;DHT22;8175;49.326;12.690;2023-04-03T21:47:45;-0.20;99.90
16140;DHT22;8175;49.326;12.690;2023-04-03T21:50:11;-0.20;99.90
16140;DHT22;8175;49.326;12.690;2023-04-03T21:52:36;-0.30;99.90
16140;DHT22;8175;49.326;12.690;2023-04-03T21:55:02;-0.40;99.90
16140;DHT22;8175;49.326;12.690;2023-04-03T21:57:28;-0.30;99.90
16140;DHT22;8175;49.326;12.690;2023-04-03T21:59:54;-0.30;99.90
16140;DHT22;8175;49.326;12.690;2023-04-03T22:02:20;-0.30;99.90
16140;DHT22;8175;49.326;12.690;2023-04-03T22:04:46;-0.40;99.90
16140;DHT22;8175;49.326;12.690;2023-04-03T22:07:12;-0.40;99.90
16140;DHT22;8175;49.326;12.690;2023-04-03T22:09:38;-0.40;99.90
16140;DHT22;8175;49.326;12.690;2023-04-03T22:12:04;-0.40;99.90
16140;DHT22;8175;49.326;12.690;2023-04-03T22:14:33;-0.50;99.90
16140;DHT22;8175;49.326;12.690;2023-04-03T22:16:59;-0.30;99.90
16140;DHT22;8175;49.326;12.690;2023-04-03T22:19:25;-0.40;99.90
16140;DHT22;8175;49.326;12.690;2023-04-03T22:21:50;-0.50;99.90
16140;DHT22;8175;49.326;12.690;2023-04-03T22:24:17;-0.50;99.90
16140;DHT22;8175;49.326;12.690;2023-04-03T22:26:44;-0.50;99.90
16140;DHT22;8175;49.326;12.690;2023-04-03T22:29:11;-0.50;99.90
16140;DHT22;8175;49.326;12.690;2023-04-03T22:31:38;-0.60;99.90
16140;DHT22;8175;49.326;12.690;2023-04-03T22:34:05;-0.60;99.90
16140;DHT22;8175;49.326;12.690;2023-04-03T22:36:31;-0.70;99.90
16140;DHT22;8175;49.326;12.690;2023-04-03T22:38:57;-0.80;99.90
16140;DHT22;8175;49.326;12.690;2023-04-03T22:41:24;-0.90;99.90
16140;DHT22;8175;49.326;12.690;2023-04-03T22:43:50;-0.90;99.90
16140;DHT22;8175;49.326;12.690;2023-04-03T22:46:16;-0.80;99.90
16140;DHT22;8175;49.326;12.690;2023-04-03T22:48:42;-0.80;99.90
16140;DHT22;8175;49.326;12.690;2023-04-03T22:51:10;-0.80;99.90
16140;DHT22;8175;49.326;12.690;2023-04-03T22:53:36;-0.90;99.90
16140;DHT22;8175;49.326;12.690;2023-04-03T22:56:04;-0.80;99.90